Latest Coastal Weather Observations for Lockhart River

IDQ60701

Issued at 9:25 pm EST Wednesday 26 November 2014 (issued every 10 minutes, with the page automatically refreshed every 10 minutes)

About coastal observations | Map of coastal stations | Coastal observations for QLD | Marine services | Other Formats
Station Details ID: 028008 Name: LOCKHART RIVER AIRPORT Lat: -12.79 Lon: 143.30 Height: 18.5 m
Data from the previous 72 hours. | See also: Recent months at Lockhart River
Date/Time
EST
Temp

°C
Wind Pressure Rain
since 9am
mm
Weather Cloud Vis
km
Sea
Height
m
Swell
Dir
 
Speed
knots
Gust
knots
hPa Trend Height
m
Period
s
Dir
26/09:03pm 27.4 ESE 10 17 1009.5 - 0.0 - Partly cloudy - - - - -
26/09:00pm 27.4 ESE 9 17 1009.4 - 0.0 - Partly cloudy - - - - -
26/08:35pm 27.3 ESE 9 13 1009.2 - 0.0 - Partly cloudy - - - - -
26/08:30pm 27.3 ESE 10 13 1009.2 - 0.0 - Partly cloudy - - - - -
26/08:11pm 27.4 ESE 10 14 1009.0 - 0.0 - Partly cloudy - - - - -
26/08:00pm 27.4 ESE 8 12 1009.0 - 0.0 - Partly cloudy - - - - -
26/07:59pm 27.4 ESE 8 12 1009.0 - 0.0 - Partly cloudy - - - - -
26/07:30pm 27.4 ESE 9 12 1008.9 - 0.0 - Partly cloudy - - - - -
26/07:00pm 27.8 ESE 10 14 1008.7 - 0.0 - Partly cloudy - - - - -
26/06:30pm 28.0 ESE 10 14 1008.6 - 0.0 - Partly cloudy - - - - -
26/06:00pm 28.6 ESE 11 15 1008.3 - 0.0 - Partly cloudy - - - - -
26/05:30pm 28.8 ESE 10 15 1008.2 - 0.0 - Partly cloudy - - - - -
26/05:00pm 29.2 ESE 13 18 1008.0 - 0.0 - Partly cloudy - - - - -
26/04:30pm 28.6 SE 11 14 1007.9 - 0.0 - Partly cloudy - - - - -
26/04:12pm 28.1 ESE 15 25 1007.7 - 0.0 - Partly cloudy - - - - -
26/04:00pm 29.3 ESE 14 23 1007.6 - 0.0 - Partly cloudy - - - - -
26/03:30pm 30.9 E 12 17 1007.6 - 0.0 - Partly cloudy - - - - -
26/03:00pm 30.4 E 13 18 1007.7 - 0.0 Fine Partly cloudy 30 - - - -
26/02:30pm 29.8 E 12 17 1008.2 - 0.0 - Partly cloudy - - - - -
26/02:00pm 29.6 E 14 23 1008.2 - 0.0 - Partly cloudy - - - - -
26/01:30pm 30.9 E 12 20 1008.3 - 0.0 - Partly cloudy - - - - -
26/01:00pm 31.2 E 12 18 1008.5 - 0.0 - Partly cloudy - - - - -
26/12:30pm 30.4 E 13 21 1008.9 - 0.0 - Partly cloudy - - - - -
26/12:00pm 30.9 ESE 15 22 1009.3 - 0.0 - Partly cloudy - - - - -
26/11:30am 30.7 ESE 14 21 1009.6 - 0.0 - Partly cloudy - - - - -
26/11:00am 29.8 E 14 21 1009.9 - 0.0 - Partly cloudy - - - - -
26/10:30am 31.0 E 12 17 1010.0 - 0.0 - Partly cloudy - - - - -
26/10:00am 31.0 E 13 19 1010.2 - 0.0 - Partly cloudy - - - - -
26/09:30am 30.5 ESE 13 20 1010.2 - 0.0 - Partly cloudy - - - - -
26/09:00am 29.6 ESE 14 21 1009.8 - 0.2 Fine Mostly cloudy 25 - - - -
26/08:30am 29.0 ESE 13 19 1009.8 - 0.2 - Partly cloudy - - - - -
26/08:00am 28.8 ESE 12 17 1009.4 - 0.2 - Partly cloudy - - - - -
26/07:30am 27.9 ESE 11 17 1009.2 - 0.2 - Partly cloudy - - - - -
26/07:27am 28.0 ESE 12 18 1009.2 - 0.2 - Partly cloudy - - - - -
26/07:00am 27.5 ESE 12 18 1008.9 - 0.2 - Partly cloudy - - - - -
26/06:34am 26.8 ESE 10 13 1008.6 - 0.2 - Partly cloudy - - - - -
26/06:32am 26.7 ESE 10 15 1008.6 - 0.2 - Partly cloudy - - - - -
26/06:30am 26.7 ESE 10 15 1008.6 - 0.2 - Partly cloudy - - - - -
26/06:12am 26.6 ESE 8 12 1008.4 - 0.2 - Partly cloudy - - - - -
26/06:00am 26.4 ESE 9 12 1008.2 - 0.2 - Partly cloudy - - - - -
26/05:40am 26.3 SE 9 13 1008.2 - 0.2 - Partly cloudy - - - - -
26/05:30am 26.3 SE 9 12 1008.1 - 0.2 - Partly cloudy - - - - -
26/05:00am 26.3 SE 7 9 1007.9 - 0.2 - Partly cloudy - - - - -
26/04:48am 26.4 SE 8 12 1007.8 - 0.2 - Partly cloudy - - - - -
26/04:30am 26.4 ESE 8 13 1007.8 - 0.2 - Partly cloudy - - - - -
26/04:00am 26.6 ESE 8 12 1007.8 - 0.2 - Partly cloudy - - - - -
26/03:54am 26.5 ESE 8 15 1007.8 - 0.2 - Partly cloudy - - - - -
26/03:30am 26.5 ESE 8 11 1007.8 - 0.2 - Partly cloudy - - - - -
26/03:00am 26.4 ESE 9 12 1007.7 - 0.2 - Partly cloudy - - - - -
26/02:36am 26.4 ESE 8 12 1007.8 - 0.2 - Partly cloudy - - - - -
26/02:30am 26.3 SE 7 12 1007.8 - 0.2 - Partly cloudy - - - - -
26/02:13am 26.4 ESE 8 11 1008.1 - 0.2 - Partly cloudy - - - - -
26/02:00am 26.3 ESE 8 13 1008.2 - 0.2 - Partly cloudy - - - - -
26/01:52am 26.3 ESE 9 13 1008.2 - 0.2 - Partly cloudy - - - - -
26/01:30am 27.0 E 9 13 1008.4 - 0.0 - Partly cloudy - - - - -
26/01:26am 26.9 ESE 9 13 1008.5 - 0.0 - Partly cloudy - - - - -
26/01:00am 26.9 ESE 8 12 1008.9 - 0.0 - Partly cloudy - - - - -
26/12:56am 26.9 ESE 8 11 1009.0 - 0.0 - Partly cloudy - - - - -
26/12:48am 26.9 ESE 9 15 1009.1 - 0.0 - Partly cloudy - - - - -
26/12:30am 27.0 ESE 9 17 1009.2 - 0.0 - Partly cloudy - - - - -
26/12:12am 26.9 ESE 9 13 1009.5 - 0.0 - Partly cloudy - - - - -
26/12:09am 26.9 ESE 9 14 1009.6 - 0.0 - Partly cloudy - - - - -
26/12:00am 27.0 ESE 10 14 1009.5 - 0.0 - Partly cloudy - - - - -
 
Date/Time
EST
Temp

°C
Wind Pressure Rain
since 9am
mm
Weather Cloud Vis
km
Sea
Height
m
Swell
Dir
 
Speed
knots
Gust
knots
hPa Trend Height
m
Period
s
Dir
25/11:30pm 27.2 ESE 10 15 1010.0 - 0.0 - Partly cloudy - - - - -
25/11:27pm 27.2 ESE 10 15 1010.0 - 0.0 - Partly cloudy - - - - -
25/11:00pm 27.2 ESE 10 15 1010.1 - 0.0 - Partly cloudy - - - - -
25/10:30pm 27.2 ESE 9 14 1010.2 - 0.0 - Partly cloudy - - - - -
25/10:00pm 27.3 ESE 9 13 1010.3 - 0.0 - Partly cloudy - - - - -
25/09:30pm 27.2 ESE 9 13 1009.9 - 0.0 - Partly cloudy - - - - -
25/09:00pm 27.2 ESE 9 13 1009.6 - 0.0 - Partly cloudy - - - - -
25/08:30pm 27.3 ESE 9 12 1009.7 - 0.0 - Partly cloudy - - - - -
25/08:00pm 27.3 ESE 9 12 1009.4 - 0.0 - Partly cloudy - - - - -
25/07:30pm 27.4 ESE 9 12 1009.2 - 0.0 - Partly cloudy - - - - -
25/07:00pm 27.6 ESE 9 14 1008.8 - 0.0 - Partly cloudy - - - - -
25/06:30pm 27.8 ESE 8 12 1008.5 - 0.0 - Partly cloudy - - - - -
25/06:00pm 27.9 ESE 9 12 1008.3 - 0.0 - Partly cloudy - - - - -
25/05:30pm 28.6 ESE 9 12 1008.1 - 0.0 - Partly cloudy - - - - -
25/05:00pm 28.8 E 11 16 1008.0 - 0.0 - Partly cloudy - - - - -
25/04:30pm 29.9 ESE 11 16 1007.9 - 0.0 - - - - - - -
25/04:00pm 30.2 E 12 17 1007.8 - 0.0 - - - - - - -
25/03:30pm 30.9 ESE 13 19 1007.9 - 0.0 - Partly cloudy - - - - -
25/03:00pm 30.5 E 14 19 1008.0 - 0.0 Fine Mostly cloudy 30 - - - -
25/02:30pm 30.6 ESE 14 20 1008.2 - 0.0 - Partly cloudy - - - - -
25/02:00pm 31.3 E 11 19 1008.4 - 0.0 - Partly cloudy - - - - -
25/01:30pm 31.5 ESE 14 19 1008.8 - 0.0 - Partly cloudy - - - - -
25/01:00pm 30.6 E 12 20 1009.1 - 0.0 - Partly cloudy - - - - -
25/12:30pm 31.6 E 13 22 1009.4 - 0.0 - - - - - - -
25/12:00pm 30.5 E 14 21 1009.7 - 0.0 - Partly cloudy - - - - -
25/11:30am 31.5 ESE 13 21 1010.0 - 0.0 - Partly cloudy - - - - -
25/11:00am 30.6 ESE 12 22 1010.3 - 0.0 - Partly cloudy - - - - -
25/10:30am 30.6 ESE 14 19 1010.4 - 0.0 - Partly cloudy - - - - -
25/10:00am 30.8 ESE 13 19 1010.5 - 0.0 - Partly cloudy - - - - -
25/09:30am 29.8 ESE 11 17 1010.7 - 0.0 - Partly cloudy - - - - -
25/09:00am 29.9 ESE 11 17 1010.7 - 0.0 Fine Mostly cloudy 25 - - - -
25/08:30am 28.7 E 11 15 1010.8 - 0.0 - Partly cloudy - - - - -
25/08:00am 28.9 ESE 12 18 1010.6 - 0.0 - Partly cloudy - - - - -
25/07:30am 28.0 SE 13 18 1010.2 - 0.0 - Partly cloudy - - - - -
25/07:00am 26.7 S 6 8 1009.9 - 0.0 - Partly cloudy - - - - -
25/06:30am 27.1 SE 8 11 1009.7 - 0.0 - Partly cloudy - - - - -
25/06:22am 26.9 SE 7 9 1009.6 - 0.0 - Partly cloudy - - - - -
25/06:00am 26.6 SE 7 10 1009.4 - 0.0 - Partly cloudy - - - - -
25/05:35am 26.4 ESE 7 10 1009.3 - 0.0 - Partly cloudy - - - - -
25/05:30am 26.4 ESE 8 11 1009.2 - 0.0 - Partly cloudy - - - - -
25/05:00am 26.3 SE 9 12 1008.9 - 0.0 - Partly cloudy - - - - -
25/04:39am 26.6 SE 10 13 1009.0 - 0.0 - Partly cloudy - - - - -
25/04:30am 26.4 SE 10 13 1008.9 - 0.0 - Partly cloudy - - - - -
25/04:00am 26.6 ESE 9 14 1008.9 - 0.0 - Partly cloudy - - - - -
25/03:48am 26.5 ESE 8 12 1008.8 - 0.0 - Partly cloudy - - - - -
25/03:30am 26.4 SE 8 10 1008.8 - 0.0 - Partly cloudy - - - - -
25/03:14am 26.4 ESE 8 13 1009.0 - 0.0 - Partly cloudy - - - - -
25/03:00am 26.5 ESE 8 12 1009.0 - 0.0 - Partly cloudy - - - - -
25/02:57am 26.5 ESE 8 12 1009.0 - 0.0 - Partly cloudy - - - - -
25/02:39am 26.4 ESE 7 11 1009.2 - 0.0 - Partly cloudy - - - - -
25/02:30am 26.5 ESE 8 13 1009.4 - 0.0 - Partly cloudy - - - - -
25/02:00am 25.6 SSE 5 7 1009.6 - 0.0 - Partly cloudy - - - - -
25/01:32am 24.9 S 6 9 1009.8 - 0.0 - Partly cloudy - - - - -
25/01:31am 25.0 S 6 9 1009.8 - 0.0 - Partly cloudy - - - - -
25/01:30am 25.1 S 5 9 1009.8 - 0.0 - Partly cloudy - - - - -
25/01:00am 25.2 SSE 5 7 1010.0 - 0.0 - Partly cloudy - - - - -
25/12:30am 24.7 S 3 4 1010.3 - 0.0 - Partly cloudy - - - - -
25/12:00am 24.9 S 1 3 1010.7 - 0.0 - Partly cloudy - - - - -
 
Date/Time
EST
Temp

°C
Wind Pressure Rain
since 9am
mm
Weather Cloud Vis
km
Sea
Height
m
Swell
Dir
 
Speed
knots
Gust
knots
hPa Trend Height
m
Period
s
Dir
24/11:30pm 25.1 SE 1 3 1011.2 - 0.0 - Partly cloudy - - - - -
24/11:00pm 25.4 S 4 5 1011.4 - 0.0 - Partly cloudy - - - - -
24/10:58pm 25.4 S 4 5 1011.4 - 0.0 - Partly cloudy - - - - -
24/10:46pm 25.6 S 2 4 1011.4 - 0.0 - Partly cloudy - - - - -
24/10:30pm 25.6 S 1 3 1011.3 - 0.0 - Partly cloudy - - - - -
24/10:00pm 25.7 S 4 6 1011.0 - 0.0 - Partly cloudy - - - - -
24/09:30pm 26.1 SSE 5 7 1010.4 - 0.0 - Partly cloudy - - - - -
24/09:00pm 26.5 SSE 5 7 1010.2 - 0.0 - Partly cloudy - - - - -
24/08:30pm 26.5 SSE 6 9 1010.1 - 0.0 - Partly cloudy - - - - -
24/08:00pm 26.7 SSE 5 7 1010.0 - 0.0 - Partly cloudy - - - - -
24/07:30pm 26.7 SE 6 7 1009.8 - 0.0 - Partly cloudy - - - - -
24/07:00pm 26.6 SSE 6 7 1009.7 - 0.0 - Partly cloudy - - - - -
24/06:30pm 27.5 SE 6 10 1009.3 - 0.0 - Partly cloudy - - - - -
24/06:00pm 27.4 SE 9 12 1009.1 - 0.0 - Partly cloudy - - - - -
24/05:30pm 28.9 E 10 16 1008.9 - 0.0 - Partly cloudy - - - - -
24/05:00pm 28.9 E 10 15 1009.1 - 0.0 - Partly cloudy - - - - -
24/04:30pm 29.5 E 12 17 1009.0 - 0.0 - Partly cloudy - - - - -
24/04:00pm 29.4 E 11 16 1009.0 - 0.0 - - - - - - -
24/03:30pm 29.6 E 12 19 1009.1 - 0.0 - Partly cloudy - - - - -
24/03:00pm 30.3 E 12 18 1009.4 - 0.0 - Partly cloudy - - - - -
24/02:30pm 30.5 E 12 19 1009.5 - 0.0 - Partly cloudy - - - - -
24/02:00pm 30.4 ESE 13 20 1009.7 - 0.0 - Partly cloudy - - - - -
24/01:30pm 30.9 E 12 18 1010.1 - 0.0 - Partly cloudy - - - - -
24/01:00pm 30.6 E 13 18 1010.5 - 0.0 - Partly cloudy - - - - -
24/12:30pm 31.0 E 12 18 1010.9 - 0.0 - Partly cloudy - - - - -
24/12:00pm 30.7 E 13 21 1011.2 - 0.0 - Partly cloudy - - - - -
24/11:30am 30.2 E 13 19 1011.6 - 0.0 - Partly cloudy - - - - -
24/11:00am 30.1 E 13 23 1011.7 - 0.0 - Partly cloudy - - - - -
24/10:30am 30.2 E 10 16 1011.7 - 0.0 - Partly cloudy - - - - -
24/10:00am 30.4 E 12 20 1012.0 - 0.0 - Partly cloudy - - - - -
24/09:30am 29.7 E 12 19 1012.1 - 0.0 - Partly cloudy - - - - -
24/09:00am 30.0 ESE 11 17 1012.0 - 0.0 Fine Partly cloudy 30 - - - -
24/08:30am 28.3 ESE 11 19 1012.2 - 0.0 - Partly cloudy - - - - -
24/08:00am 29.1 ESE 10 15 1011.8 - 0.0 - Partly cloudy - - - - -
24/07:30am 28.0 SE 8 16 1011.4 - 0.0 - Partly cloudy - - - - -
24/07:00am 26.7 SSE 5 8 1011.1 - 0.0 - Partly cloudy - - - - -
24/06:30am 25.8 SSE 5 6 1010.6 - 0.0 - Partly cloudy - - - - -
24/06:00am 25.4 SSE 6 8 1010.1 - 0.0 - Partly cloudy - - - - -
24/05:30am 25.7 SSE 6 8 1010.0 - 0.0 - Partly cloudy - - - - -
24/05:00am 26.2 ESE 8 11 1009.9 - 0.0 - Partly cloudy - - - - -
24/04:30am 26.3 ESE 9 12 1009.8 - 0.0 - Partly cloudy - - - - -
24/04:00am 26.4 E 8 13 1009.9 - 0.0 - Partly cloudy - - - - -
24/03:30am 26.4 ESE 8 11 1010.1 - 0.0 - Partly cloudy - - - - -
24/03:00am 26.4 E 9 14 1009.7 - 0.0 - Partly cloudy - - - - -
24/02:30am 26.5 E 8 13 1010.2 - 0.0 - Partly cloudy - - - - -
24/02:00am 26.5 E 8 13 1010.4 - 0.0 - Partly cloudy - - - - -
24/01:30am 26.5 ESE 9 14 1010.7 - 0.0 - Partly cloudy - - - - -
24/01:00am 26.6 E 8 14 1011.2 - 0.0 - Partly cloudy - - - - -
24/12:30am 26.7 ESE 9 13 1011.7 - 0.0 - Partly cloudy - - - - -
24/12:00am 26.7 E 7 10 1012.0 - 0.0 - Partly cloudy - - - - -
 
Date/Time
EST
Temp

°C
Wind Pressure Rain
since 9am
mm
Weather Cloud Vis
km
Sea
Height
m
Swell
Dir
 
Speed
knots
Gust
knots
hPa Trend Height
m
Period
s
Dir
23/11:30pm 26.7 E 9 14 1012.4 - 0.0 - Partly cloudy - - - - -
23/11:00pm 26.8 ESE 9 13 1012.7 - 0.0 - Partly cloudy - - - - -
23/10:30pm 26.8 E 7 12 1012.6 - 0.0 - Partly cloudy - - - - -
23/10:00pm 26.9 E 9 13 1012.7 - 0.0 - Partly cloudy - - - - -
23/09:30pm 26.8 ESE 8 12 1012.5 - 0.0 - Partly cloudy - - - - -

Other Formats:

Comma delimited format used in spreadsheet applications
http://www.bom.gov.au/fwo/IDQ60701/IDQ60701.94186.axf

JavaScript Object Notation format (JSON) in row-major order
http://www.bom.gov.au/fwo/IDQ60701/IDQ60701.94186.json